Time,TemperatureF,DewpointF,PressureIn,WindDirection,WindDirectionDegrees,WindSpeedMPH,WindSpeedGustMPH,Humidity,HourlyPrecipIn,Conditions,Clouds,dailyrainin,SoftwareType,DateUTC
2013-05-18 00:03:00,63.0,54.0,30.15,SW,235,0.0,0.0,72,0.00,,,0.00,,2013-05-18 04:03:00,
2013-05-18 00:12:00,63.0,54.0,30.15,SW,235,0.0,0.0,72,0.00,,,0.00,,2013-05-18 04:12:00,
2013-05-18 00:23:00,63.0,54.0,30.14,SW,235,0.0,0.0,73,0.00,,,0.00,,2013-05-18 04:23:00,
2013-05-18 00:33:00,63.0,54.0,30.14,SW,235,0.0,0.0,73,0.00,,,0.00,,2013-05-18 04:33:00,
2013-05-18 00:43:00,63.0,54.0,30.14,SW,235,0.0,0.0,73,0.00,,,0.00,,2013-05-18 04:43:00,
2013-05-18 00:52:00,62.0,54.0,30.14,SW,235,0.0,1.0,74,0.00,,,0.00,,2013-05-18 04:52:00,
2013-05-18 01:02:00,62.0,54.0,30.14,SW,235,0.0,1.0,75,0.00,,,0.00,,2013-05-18 05:02:00,
2013-05-18 01:13:00,62.0,54.0,30.14,SW,235,0.0,1.0,75,0.00,,,0.00,,2013-05-18 05:13:00,
2013-05-18 01:22:00,62.0,54.0,30.14,SW,235,0.0,0.0,75,0.00,,,0.00,,2013-05-18 05:22:00,
2013-05-18 01:32:00,62.0,54.0,30.13,SW,235,0.0,0.0,76,0.00,,,0.00,,2013-05-18 05:32:00,
2013-05-18 01:42:00,62.0,54.0,30.13,SW,235,0.0,0.0,76,0.00,,,0.00,,2013-05-18 05:42:00,
2013-05-18 01:52:00,62.0,54.0,30.13,SW,235,0.0,0.0,76,0.00,,,0.00,,2013-05-18 05:52:00,
2013-05-18 02:02:00,61.0,54.0,30.13,SW,235,0.0,0.0,77,0.00,,,0.00,,2013-05-18 06:02:00,
2013-05-18 02:11:00,61.0,54.0,30.13,SW,235,0.0,0.0,77,0.00,,,0.00,,2013-05-18 06:11:00,
2013-05-18 02:22:00,61.0,54.0,30.13,SW,235,0.0,0.0,79,0.00,,,0.00,,2013-05-18 06:22:00,
2013-05-18 02:32:00,60.0,54.0,30.12,SW,235,0.0,0.0,81,0.00,,,0.00,,2013-05-18 06:32:00,
2013-05-18 02:42:00,60.0,54.0,30.12,SW,235,0.0,0.0,81,0.00,,,0.00,,2013-05-18 06:42:00,
2013-05-18 02:52:00,60.0,54.0,30.12,SW,235,0.0,0.0,81,0.00,,,0.00,,2013-05-18 06:52:00,
2013-05-18 03:01:00,60.0,54.0,30.12,SW,235,0.0,0.0,82,0.00,,,0.00,,2013-05-18 07:01:00,
2013-05-18 03:12:00,60.0,54.0,30.12,SW,235,0.0,0.0,82,0.00,,,0.00,,2013-05-18 07:12:00,
2013-05-18 03:21:00,60.0,55.0,30.11,SW,235,0.0,1.0,83,0.00,,,0.00,,2013-05-18 07:21:00,
2013-05-18 03:32:00,60.0,55.0,30.11,ENE,59,0.0,3.0,84,0.00,,,0.00,,2013-05-18 07:32:00,
2013-05-18 03:42:00,60.0,55.0,30.11,ENE,59,0.0,3.0,84,0.00,,,0.00,,2013-05-18 07:42:00,
2013-05-18 03:52:00,60.0,55.0,30.11,ENE,59,0.0,1.0,83,0.00,,,0.00,,2013-05-18 07:52:00,
2013-05-18 04:02:00,60.0,55.0,30.11,ENE,59,0.0,1.0,83,0.00,,,0.00,,2013-05-18 08:02:00,
2013-05-18 04:11:00,60.0,55.0,30.11,ENE,59,0.0,1.0,83,0.00,,,0.00,,2013-05-18 08:11:00,
2013-05-18 04:21:00,60.0,55.0,30.11,ENE,59,0.0,1.0,83,0.00,,,0.00,,2013-05-18 08:21:00,
2013-05-18 04:32:00,60.0,55.0,30.11,ENE,59,0.0,1.0,84,0.00,,,0.00,,2013-05-18 08:32:00,
2013-05-18 04:42:00,60.0,55.0,30.11,ENE,59,0.0,1.0,84,0.00,,,0.00,,2013-05-18 08:42:00,
2013-05-18 04:52:00,60.0,55.0,30.11,ENE,59,0.0,0.0,84,0.00,,,0.00,,2013-05-18 08:52:00,
2013-05-18 05:02:00,60.0,55.0,30.11,ENE,59,0.0,1.0,84,0.00,,,0.00,,2013-05-18 09:02:00,
2013-05-18 05:11:00,60.0,55.0,30.11,ENE,59,0.0,1.0,84,0.00,,,0.00,,2013-05-18 09:11:00,
2013-05-18 05:22:00,61.0,56.0,30.11,ENE,59,0.0,1.0,84,0.00,,,0.00,,2013-05-18 09:22:00,
2013-05-18 05:33:00,61.0,56.0,30.10,ENE,59,0.0,0.0,84,0.00,,,0.00,,2013-05-18 09:33:00,
2013-05-18 05:43:00,61.0,56.0,30.10,ENE,59,0.0,0.0,84,0.00,,,0.00,,2013-05-18 09:43:00,
2013-05-18 05:53:00,61.0,56.0,30.11,ENE,59,0.0,1.0,84,0.00,,,0.00,,2013-05-18 09:53:00,
2013-05-18 06:03:00,61.0,57.0,30.12,ENE,59,0.0,0.0,87,0.10,,,0.10,,2013-05-18 10:03:00,
2013-05-18 06:12:00,61.0,57.0,30.12,ENE,59,0.0,0.0,87,0.10,,,0.10,,2013-05-18 10:12:00,
2013-05-18 06:23:00,61.0,57.0,30.13,ENE,59,0.0,1.0,88,0.22,,,0.22,,2013-05-18 10:23:00,
2013-05-18 06:33:00,60.0,57.0,30.12,ENE,59,0.0,3.0,90,0.36,,,0.36,,2013-05-18 10:33:00,
2013-05-18 06:42:00,60.0,57.0,30.12,ENE,59,0.0,3.0,90,0.36,,,0.36,,2013-05-18 10:42:00,
2013-05-18 06:52:00,60.0,57.0,30.13,ENE,70,0.0,4.0,91,0.38,,,0.38,,2013-05-18 10:52:00,
2013-05-18 07:03:00,60.0,58.0,30.12,ENE,70,0.0,2.0,92,0.30,,,0.39,,2013-05-18 11:03:00,
2013-05-18 07:12:00,60.0,58.0,30.12,ENE,70,0.0,2.0,92,0.30,,,0.39,,2013-05-18 11:12:00,
2013-05-18 07:22:00,60.0,58.0,30.13,ENE,70,1.0,3.0,93,0.28,,,0.50,,2013-05-18 11:22:00,
2013-05-18 07:33:00,61.0,59.0,30.14,ENE,58,0.0,0.0,94,0.32,,,0.68,,2013-05-18 11:33:00,
2013-05-18 07:42:00,61.0,59.0,30.14,ENE,58,0.0,0.0,94,0.32,,,0.68,,2013-05-18 11:42:00,
2013-05-18 07:52:00,60.0,58.0,30.14,ENE,58,0.0,1.0,94,0.36,,,0.73,,2013-05-18 11:52:00,
2013-05-18 08:02:00,60.0,58.0,30.15,ENE,58,0.0,1.0,94,0.42,,,0.81,,2013-05-18 12:02:00,
2013-05-18 08:12:00,60.0,58.0,30.15,ENE,58,0.0,1.0,94,0.42,,,0.81,,2013-05-18 12:12:00,
2013-05-18 08:23:00,60.0,58.0,30.15,ENE,58,0.0,0.0,94,0.32,,,0.82,,2013-05-18 12:23:00,
2013-05-18 08:33:00,61.0,60.0,30.14,ENE,58,0.0,0.0,95,0.17,,,0.85,,2013-05-18 12:33:00,
2013-05-18 08:42:00,61.0,60.0,30.14,ENE,58,0.0,0.0,95,0.17,,,0.85,,2013-05-18 12:42:00,
2013-05-18 08:52:00,61.0,60.0,30.15,ENE,58,0.0,0.0,95,0.12,,,0.85,,2013-05-18 12:52:00,
2013-05-18 09:01:00,61.0,60.0,30.15,ENE,58,1.0,2.0,95,0.05,,,0.85,,2013-05-18 13:01:00,
2013-05-18 09:11:00,61.0,60.0,30.15,ENE,58,1.0,2.0,95,0.05,,,0.85,,2013-05-18 13:11:00,
2013-05-18 09:21:00,61.0,60.0,30.15,ENE,58,0.0,1.0,95,0.04,,,0.86,,2013-05-18 13:21:00,
2013-05-18 09:33:00,60.0,59.0,30.14,ENE,59,0.0,2.0,95,0.03,,,0.88,,2013-05-18 13:33:00,
2013-05-18 09:43:00,60.0,59.0,30.14,ENE,59,0.0,2.0,95,0.03,,,0.88,,2013-05-18 13:43:00,
2013-05-18 09:52:00,60.0,59.0,30.15,ENE,59,0.0,0.0,95,0.06,,,0.91,,2013-05-18 13:52:00,
2013-05-18 10:04:00,61.0,60.0,30.15,ENE,59,0.0,1.0,96,0.10,,,0.95,,2013-05-18 14:04:00,
2013-05-18 10:12:00,61.0,60.0,30.15,ENE,59,0.0,1.0,96,0.10,,,0.95,,2013-05-18 14:12:00,
2013-05-18 10:22:00,61.0,60.0,30.15,ENE,59,0.0,0.0,96,0.12,,,0.98,,2013-05-18 14:22:00,
2013-05-18 10:33:00,60.0,59.0,30.15,ENE,59,0.0,1.0,96,0.15,,,1.03,,2013-05-18 14:33:00,
2013-05-18 10:42:00,60.0,59.0,30.15,ENE,59,0.0,1.0,96,0.15,,,1.03,,2013-05-18 14:42:00,
2013-05-18 10:54:00,60.0,59.0,30.15,ENE,59,0.0,1.0,96,0.14,,,1.04,,2013-05-18 14:54:00,
2013-05-18 11:03:00,60.0,59.0,30.15,ENE,59,0.0,1.0,96,0.11,,,1.05,,2013-05-18 15:03:00,
2013-05-18 11:13:00,60.0,59.0,30.15,ENE,59,0.0,1.0,96,0.11,,,1.05,,2013-05-18 15:13:00,
2013-05-18 11:23:00,61.0,60.0,30.15,ENE,59,0.0,0.0,96,-99.99,,,-99.99,,2013-05-18 15:23:00,
2013-05-18 11:33:00,61.0,60.0,30.15,ENE,62,0.0,2.0,96,-99.99,,,-99.99,,2013-05-18 15:33:00,
2013-05-18 11:43:00,61.0,60.0,30.15,ENE,62,0.0,2.0,96,-99.99,,,-99.99,,2013-05-18 15:43:00,
2013-05-18 11:53:00,61.0,60.0,30.15,ENE,62,0.0,1.0,96,-99.99,,,-99.99,,2013-05-18 15:53:00,
2013-05-18 12:03:00,61.0,60.0,30.15,ENE,62,0.0,0.0,97,-99.99,,,-99.99,,2013-05-18 16:03:00,
2013-05-18 12:13:00,61.0,60.0,30.15,ENE,62,0.0,0.0,97,-99.99,,,-99.99,,2013-05-18 16:13:00,
2013-05-18 12:22:00,61.0,60.0,30.14,ENE,62,0.0,0.0,97,0.03,,,-99.99,,2013-05-18 16:22:00,
2013-05-18 12:33:00,61.0,60.0,30.14,ENE,62,0.0,1.0,97,0.02,,,-99.99,,2013-05-18 16:33:00,
2013-05-18 12:42:00,61.0,60.0,30.14,ENE,62,0.0,1.0,97,0.02,,,-99.99,,2013-05-18 16:42:00,
2013-05-18 12:52:00,61.0,60.0,30.14,ENE,62,0.0,1.0,97,0.02,,,-99.99,,2013-05-18 16:52:00,
2013-05-18 13:02:00,61.0,60.0,30.14,ENE,62,0.0,1.0,97,0.02,,,-99.99,,2013-05-18 17:02:00,
2013-05-18 13:12:00,61.0,60.0,30.14,ENE,62,0.0,1.0,97,0.02,,,-99.99,,2013-05-18 17:12:00,
2013-05-18 20:02:00,62.0,61.0,30.11,ENE,62,0.0,0.0,97,-99.99,,,-99.99,,2013-05-19 00:02:00,
2013-05-18 20:12:00,62.0,61.0,30.11,ENE,62,0.0,0.0,97,-99.99,,,-99.99,,2013-05-19 00:12:00,
2013-05-18 20:22:00,62.0,61.0,30.11,ENE,62,0.0,0.0,97,-99.99,,,-99.99,,2013-05-19 00:22:00,
2013-05-18 20:32:00,62.0,61.0,30.11,ENE,62,0.0,1.0,97,-99.99,,,-99.99,,2013-05-19 00:32:00,
2013-05-18 20:41:00,62.0,61.0,30.11,ENE,62,0.0,1.0,97,-99.99,,,-99.99,,2013-05-19 00:41:00,
2013-05-18 20:52:00,62.0,61.0,30.11,ENE,62,0.0,1.0,97,-99.99,,,-99.99,,2013-05-19 00:52:00,
2013-05-18 21:01:00,62.0,61.0,30.11,ENE,62,0.0,0.0,97,0.00,,,-99.99,,2013-05-19 01:01:00,
2013-05-18 21:11:00,62.0,61.0,30.11,ENE,62,0.0,0.0,97,0.00,,,-99.99,,2013-05-19 01:11:00,
2013-05-18 21:22:00,61.0,60.0,30.11,ENE,62,0.0,0.0,97,0.00,,,-99.99,,2013-05-19 01:22:00,
2013-05-18 21:32:00,61.0,60.0,30.11,ENE,62,0.0,0.0,97,0.00,,,-99.99,,2013-05-19 01:32:00,
2013-05-18 21:42:00,61.0,60.0,30.11,ENE,62,0.0,0.0,97,0.00,,,-99.99,,2013-05-19 01:42:00,
2013-05-18 21:52:00,61.0,60.0,30.12,ENE,62,0.0,0.0,98,0.00,,,-99.99,,2013-05-19 01:52:00,
2013-05-18 22:02:00,61.0,60.0,30.12,ENE,62,0.0,0.0,98,0.00,,,-99.99,,2013-05-19 02:02:00,
2013-05-18 22:11:00,61.0,60.0,30.12,ENE,62,0.0,0.0,98,0.00,,,-99.99,,2013-05-19 02:11:00,
2013-05-18 22:22:00,61.0,60.0,30.12,ENE,62,0.0,0.0,98,0.00,,,-99.99,,2013-05-19 02:22:00,
2013-05-18 22:32:00,61.0,60.0,30.12,ENE,62,0.0,1.0,98,0.00,,,-99.99,,2013-05-19 02:32:00,
2013-05-18 22:42:00,61.0,60.0,30.12,ENE,62,0.0,1.0,98,0.00,,,-99.99,,2013-05-19 02:42:00,
2013-05-18 22:52:00,61.0,60.0,30.12,ENE,62,0.0,0.0,98,0.00,,,-99.99,,2013-05-19 02:52:00,
2013-05-18 23:01:00,61.0,60.0,30.12,ENE,62,0.0,0.0,98,0.00,,,-99.99,,2013-05-19 03:01:00,
2013-05-18 23:11:00,61.0,60.0,30.12,ENE,62,0.0,0.0,98,0.00,,,-99.99,,2013-05-19 03:11:00,
2013-05-18 23:22:00,61.0,60.0,30.12,ENE,62,0.0,0.0,97,0.00,,,-99.99,,2013-05-19 03:22:00,
2013-05-18 23:33:00,61.0,60.0,30.11,ENE,62,0.0,0.0,98,0.00,,,-99.99,,2013-05-19 03:33:00,
2013-05-18 23:42:00,61.0,60.0,30.11,ENE,62,0.0,0.0,98,0.00,,,-99.99,,2013-05-19 03:42:00,
2013-05-18 23:53:00,61.0,60.0,30.11,ENE,62,0.0,0.0,98,0.00,,,-99.99,,2013-05-19 03:53:00,